createdAt,value
2023-12-15T00:00:03.598Z,6.30
2023-12-15T00:02:42.606Z,6.53
2023-12-15T00:07:40.888Z,7.07
2023-12-15T00:10:10.224Z,7.95
2023-12-15T00:12:38.854Z,7.90
2023-12-15T00:15:08.879Z,7.75
2023-12-15T00:17:37.907Z,7.60
2023-12-15T00:20:10.482Z,8.07
2023-12-15T00:22:39.159Z,8.07
2023-12-15T00:25:08.189Z,8.90
2023-12-15T00:27:37.352Z,7.93
2023-12-15T00:30:07.386Z,9.45
2023-12-15T00:32:36.315Z,9.32
2023-12-15T00:35:05.189Z,8.75
2023-12-15T00:37:35.474Z,15.65
2023-12-15T00:40:04.438Z,11.15
2023-12-15T00:42:33.440Z,10.75
2023-12-15T00:45:03.446Z,11.60
2023-12-15T00:47:34.907Z,11.20
2023-12-15T00:50:05.607Z,11.18
2023-12-15T00:55:05.078Z,12.23
2023-12-15T00:57:34.539Z,13.35
2023-12-15T01:00:04.805Z,12.25
2023-12-15T01:02:35.125Z,13.38
2023-12-15T01:05:04.546Z,13.10
2023-12-15T01:07:33.425Z,12.52
2023-12-15T01:10:04.006Z,13.07
2023-12-15T01:12:33.213Z,13.63
2023-12-15T01:15:02.410Z,13.00
2023-12-15T01:17:33.039Z,12.13
2023-12-15T01:20:01.992Z,10.18
2023-12-15T01:25:01.063Z,8.98
2023-12-15T01:27:31.514Z,8.25
2023-12-15T01:30:00.626Z,7.80
2023-12-15T01:32:29.316Z,7.30
2023-12-15T01:34:58.118Z,7.35
2023-12-15T01:37:27.263Z,6.78
2023-12-15T01:39:56.059Z,6.55
2023-12-15T01:42:25.816Z,6.68
2023-12-15T01:44:56.411Z,6.15
2023-12-15T01:47:26.365Z,6.38
2023-12-15T01:49:56.201Z,6.75
2023-12-15T01:52:24.916Z,6.65
2023-12-15T01:54:53.701Z,6.30
2023-12-15T01:57:22.643Z,6.15
2023-12-15T01:59:52.029Z,6.60
2023-12-15T02:02:22.037Z,6.93
2023-12-15T02:04:51.117Z,6.72
2023-12-15T02:07:20.563Z,5.75
2023-12-15T02:09:49.192Z,6.25
2023-12-15T02:12:18.066Z,6.15
2023-12-15T02:14:46.776Z,6.07
2023-12-15T02:17:16.388Z,6.55
2023-12-15T02:19:46.595Z,6.45
2023-12-15T02:22:15.145Z,6.32
2023-12-15T02:24:45.675Z,5.95
2023-12-15T02:27:14.580Z,6.60
2023-12-15T02:29:43.239Z,7.05
2023-12-15T02:32:12.698Z,6.70
2023-12-15T02:34:41.577Z,6.88
2023-12-15T02:37:10.289Z,6.55
2023-12-15T02:39:40.851Z,6.45
2023-12-15T02:42:10.863Z,7.68
2023-12-15T02:44:39.787Z,7.10
2023-12-15T02:47:08.660Z,7.35
2023-12-15T02:49:40.982Z,7.20
2023-12-15T02:52:09.753Z,6.85
2023-12-15T02:54:38.351Z,7.47
2023-12-15T02:57:07.646Z,7.80
2023-12-15T02:59:37.719Z,7.68
2023-12-15T03:02:07.289Z,7.88
2023-12-15T03:04:35.846Z,7.35
2023-12-15T03:07:04.760Z,8.15
2023-12-15T03:09:33.719Z,7.78
2023-12-15T03:12:02.571Z,7.93
2023-12-15T03:14:31.249Z,8.07
2023-12-15T03:17:01.532Z,8.45
2023-12-15T03:19:30.524Z,8.75
2023-12-15T03:21:59.196Z,8.57
2023-12-15T03:24:28.055Z,9.05
2023-12-15T03:26:58.045Z,9.45
2023-12-15T03:29:26.844Z,9.02
2023-12-15T03:31:55.868Z,8.68
2023-12-15T03:34:25.836Z,8.45
2023-12-15T03:36:54.894Z,9.57
2023-12-15T03:39:23.467Z,8.77
2023-12-15T03:41:52.440Z,9.68
2023-12-15T03:44:21.066Z,8.40
2023-12-15T03:46:50.196Z,8.95
2023-12-15T03:49:18.860Z,9.82
2023-12-15T03:51:49.161Z,9.35
2023-12-15T03:54:17.832Z,9.15
2023-12-15T03:56:46.523Z,9.05
2023-12-15T03:59:15.366Z,9.32
2023-12-15T04:01:44.359Z,9.85
2023-12-15T04:04:13.275Z,9.23
2023-12-15T04:06:42.009Z,9.23
2023-12-15T04:09:12.191Z,9.95
2023-12-15T04:11:41.342Z,10.30
2023-12-15T04:14:10.808Z,9.45
2023-12-15T04:16:42.419Z,9.82
2023-12-15T04:19:11.431Z,9.55
2023-12-15T04:21:40.110Z,9.35
2023-12-15T04:24:09.151Z,9.73
2023-12-15T04:26:39.404Z,10.40
2023-12-15T04:29:07.966Z,9.95
2023-12-15T04:31:36.581Z,9.85
2023-12-15T04:34:05.025Z,11.13
2023-12-15T04:36:34.333Z,10.23
2023-12-15T04:39:04.194Z,10.50
2023-12-15T04:41:32.674Z,10.45
2023-12-15T04:44:02.817Z,10.15
2023-12-15T04:46:32.494Z,10.02
2023-12-15T04:49:01.913Z,10.15
2023-12-15T04:51:30.445Z,10.05
2023-12-15T04:53:59.286Z,10.93
2023-12-15T04:56:27.813Z,11.13
2023-12-15T04:58:56.293Z,10.93
2023-12-15T05:01:26.820Z,10.07
2023-12-15T05:03:55.795Z,9.77
2023-12-15T05:06:26.887Z,8.70
2023-12-15T05:08:56.547Z,9.10
2023-12-15T05:11:26.352Z,10.30
2023-12-15T05:13:54.951Z,9.68
2023-12-15T05:16:25.936Z,9.02
2023-12-15T05:18:55.771Z,8.90
2023-12-15T05:21:24.283Z,9.23
2023-12-15T05:23:53.370Z,9.55
2023-12-15T05:26:21.989Z,8.55
2023-12-15T05:28:50.825Z,8.02
2023-12-15T05:31:19.556Z,8.15
2023-12-15T05:33:49.896Z,8.30
2023-12-15T05:36:22.292Z,7.70
2023-12-15T05:38:51.195Z,7.93
2023-12-15T05:41:19.755Z,8.38
2023-12-15T05:43:48.299Z,8.02
2023-12-15T05:46:16.918Z,7.40
2023-12-15T05:48:45.454Z,8.85
2023-12-15T05:51:15.931Z,8.27
2023-12-15T05:53:52.791Z,8.85
2023-12-15T05:56:27.059Z,8.13
2023-12-15T05:58:55.825Z,8.85
2023-12-15T06:01:24.518Z,8.10
2023-12-15T06:03:53.929Z,8.50
2023-12-15T06:06:23.810Z,8.30
2023-12-15T06:08:53.432Z,8.95
2023-12-15T06:11:21.933Z,9.40
2023-12-15T06:13:50.620Z,8.55
2023-12-15T06:16:20.056Z,8.65
2023-12-15T06:18:49.652Z,8.90
2023-12-15T06:21:27.098Z,9.07
2023-12-15T06:23:55.442Z,9.05
2023-12-15T06:26:25.786Z,8.48
2023-12-15T06:28:55.692Z,8.98
2023-12-15T06:31:26.736Z,7.95
2023-12-15T06:33:56.091Z,8.60
2023-12-15T06:36:30.153Z,8.68
2023-12-15T06:39:00.033Z,9.55
2023-12-15T06:41:28.913Z,9.55
2023-12-15T06:43:58.245Z,9.82
2023-12-15T06:46:26.971Z,10.77
2023-12-15T06:48:56.130Z,10.75
2023-12-15T06:51:26.457Z,11.90
2023-12-15T06:53:54.980Z,12.82
2023-12-15T06:56:23.818Z,11.65
2023-12-15T06:58:52.520Z,11.10
2023-12-15T07:01:22.553Z,9.35
2023-12-15T07:03:51.450Z,7.85
2023-12-15T07:06:19.982Z,8.32
2023-12-15T07:08:51.915Z,8.65
2023-12-15T07:11:20.894Z,8.55
2023-12-15T07:13:49.562Z,8.95
2023-12-15T07:16:18.078Z,7.65
2023-12-15T07:18:47.025Z,8.48
2023-12-15T07:21:16.137Z,8.27
2023-12-15T07:23:45.102Z,8.85
2023-12-15T07:26:15.502Z,8.95
2023-12-15T07:28:44.171Z,9.50
2023-12-15T07:31:13.157Z,8.70
2023-12-15T07:33:42.113Z,8.80
2023-12-15T07:36:12.672Z,9.50
2023-12-15T07:38:41.413Z,8.88
2023-12-15T07:41:10.210Z,8.57
2023-12-15T07:43:40.976Z,9.95
2023-12-15T07:46:18.112Z,10.35
2023-12-15T07:48:46.981Z,9.70
2023-12-15T07:51:19.516Z,9.23
2023-12-15T07:53:48.939Z,9.43
2023-12-15T07:56:27.538Z,8.82
2023-12-15T07:58:58.748Z,9.57
2023-12-15T08:01:27.681Z,9.82
2023-12-15T08:03:56.237Z,10.60
2023-12-15T08:06:25.400Z,8.95
2023-12-15T08:08:53.970Z,9.75
2023-12-15T08:11:23.900Z,8.90
2023-12-15T08:13:53.239Z,9.68
2023-12-15T08:16:23.111Z,9.25
2023-12-15T08:18:52.246Z,9.07
2023-12-15T08:21:21.131Z,9.18
2023-12-15T08:23:49.629Z,9.73
2023-12-15T08:26:22.194Z,8.68
2023-12-15T08:28:51.033Z,9.18
2023-12-15T08:31:19.399Z,9.52
2023-12-15T08:33:49.705Z,8.68
2023-12-15T08:36:18.442Z,10.00
2023-12-15T08:38:47.339Z,9.20
2023-12-15T08:41:15.928Z,8.65
2023-12-15T08:43:44.879Z,9.00
2023-12-15T08:46:13.338Z,8.68
2023-12-15T08:48:41.869Z,8.68
2023-12-15T08:51:12.153Z,9.07
2023-12-15T08:53:40.750Z,9.05
2023-12-15T08:56:09.674Z,8.50
2023-12-15T08:58:38.330Z,7.93
2023-12-15T09:01:07.469Z,9.00
2023-12-15T09:03:37.952Z,8.30
2023-12-15T09:08:59.277Z,8.20
2023-12-15T09:11:28.282Z,9.05
2023-12-15T09:13:56.892Z,8.77
2023-12-15T09:16:25.736Z,8.43
2023-12-15T09:18:54.777Z,8.35
2023-12-15T09:21:23.455Z,9.55
2023-12-15T09:23:54.691Z,8.05
2023-12-15T09:26:24.652Z,9.20
2023-12-15T09:28:53.362Z,8.98
2023-12-15T09:31:22.356Z,8.52
2023-12-15T09:33:51.086Z,9.50
2023-12-15T09:36:19.919Z,9.25
2023-12-15T09:38:48.789Z,8.02
2023-12-15T09:41:17.642Z,8.50
2023-12-15T09:43:47.938Z,7.35
2023-12-15T09:46:16.830Z,9.00
2023-12-15T09:48:46.611Z,8.80
2023-12-15T09:51:24.069Z,8.70
2023-12-15T09:53:53.919Z,8.73
2023-12-15T09:56:22.645Z,8.73
2023-12-15T09:58:52.673Z,8.30
2023-12-15T10:01:21.525Z,8.30
2023-12-15T10:03:50.102Z,8.65
2023-12-15T10:06:19.786Z,9.00
2023-12-15T10:11:20.189Z,8.85
2023-12-15T10:13:48.961Z,8.05
2023-12-15T10:16:19.189Z,8.48
2023-12-15T10:18:48.958Z,7.35
2023-12-15T10:21:18.672Z,8.27
2023-12-15T10:23:47.389Z,7.65
2023-12-15T10:26:16.733Z,7.65
2023-12-15T10:28:45.428Z,7.50
2023-12-15T10:31:14.530Z,7.95
2023-12-15T10:33:46.414Z,7.88
2023-12-15T10:36:15.966Z,8.00
2023-12-15T10:38:44.709Z,8.20
2023-12-15T10:41:15.508Z,8.23
2023-12-15T10:43:45.027Z,8.10
2023-12-15T10:46:15.286Z,8.45
2023-12-15T10:48:47.183Z,8.43
2023-12-15T10:51:16.565Z,7.90
2023-12-15T10:53:45.567Z,8.88
2023-12-15T10:56:14.951Z,8.18
2023-12-15T10:58:43.650Z,8.50
2023-12-15T11:01:14.060Z,9.48
2023-12-15T11:03:44.451Z,8.00
2023-12-15T11:06:14.485Z,8.07
2023-12-15T11:08:44.315Z,7.00
2023-12-15T11:11:24.099Z,7.85
2023-12-15T11:13:59.620Z,8.10
2023-12-15T11:16:30.737Z,7.03
2023-12-15T11:19:01.943Z,8.35
2023-12-15T11:21:31.472Z,8.57
2023-12-15T11:24:03.393Z,8.07
2023-12-15T11:26:33.209Z,8.20
2023-12-15T11:31:35.944Z,8.65
2023-12-15T11:34:06.949Z,8.07
2023-12-15T11:36:42.905Z,8.65
2023-12-15T11:39:13.578Z,8.38
2023-12-15T11:41:44.417Z,8.23
2023-12-15T11:44:12.985Z,8.63
2023-12-15T11:46:42.260Z,8.00
2023-12-15T11:49:24.654Z,8.43
2023-12-15T11:51:53.674Z,8.00
2023-12-15T11:54:22.566Z,7.80
2023-12-15T11:56:51.089Z,8.15
2023-12-15T11:59:19.860Z,7.38
2023-12-15T12:01:49.885Z,7.82
2023-12-15T12:04:24.987Z,7.95
2023-12-15T12:06:54.566Z,8.45
2023-12-15T12:09:23.571Z,7.80
2023-12-15T12:11:57.107Z,8.80
2023-12-15T12:14:29.564Z,8.80
2023-12-15T12:17:00.368Z,7.22
2023-12-15T12:22:01.909Z,7.32
2023-12-15T12:24:30.457Z,7.50
2023-12-15T12:26:59.692Z,7.65
2023-12-15T12:29:32.316Z,8.10
2023-12-15T12:32:01.495Z,8.25
2023-12-15T12:34:32.086Z,7.40
2023-12-15T12:37:00.998Z,7.78
2023-12-15T12:39:30.025Z,7.28
2023-12-15T12:41:59.519Z,8.00
2023-12-15T12:44:28.932Z,7.35
2023-12-15T12:46:58.082Z,8.20
2023-12-15T12:49:26.980Z,8.68
2023-12-15T12:51:58.398Z,8.05
2023-12-15T12:57:00.372Z,9.35
2023-12-15T12:59:30.180Z,9.10
2023-12-15T13:02:10.811Z,10.18
2023-12-15T13:04:44.936Z,8.90
2023-12-15T13:07:16.570Z,9.93
2023-12-15T13:09:45.874Z,10.73
2023-12-15T13:12:19.121Z,8.93
2023-12-15T13:14:48.587Z,7.93
2023-12-15T13:17:18.253Z,8.20
2023-12-15T13:19:50.717Z,7.93
2023-12-15T13:22:37.824Z,7.78
2023-12-15T13:25:15.093Z,7.75
2023-12-15T13:27:43.747Z,7.53
2023-12-15T13:30:13.220Z,8.50
2023-12-15T13:32:42.508Z,7.67
2023-12-15T13:35:11.332Z,8.60
2023-12-15T13:37:41.456Z,9.00
2023-12-15T13:40:13.074Z,7.97
2023-12-15T13:42:42.647Z,8.35
2023-12-15T13:45:11.803Z,7.88
2023-12-15T13:47:40.623Z,8.50
2023-12-15T13:50:10.215Z,8.30
2023-12-15T13:52:39.573Z,8.52
2023-12-15T13:55:10.958Z,8.38
2023-12-15T13:57:39.774Z,7.97
2023-12-15T14:00:10.984Z,8.68
2023-12-15T14:02:40.414Z,8.30
2023-12-15T14:05:10.241Z,8.95
2023-12-15T14:07:39.409Z,9.00
2023-12-15T14:10:13.609Z,9.05
2023-12-15T14:12:44.176Z,9.32
2023-12-15T14:15:13.486Z,9.88
2023-12-15T14:17:42.736Z,9.13
2023-12-15T14:20:14.115Z,8.75
2023-12-15T14:22:46.013Z,8.88
2023-12-15T14:25:16.099Z,9.40
2023-12-15T14:27:46.999Z,8.75
2023-12-15T14:30:16.975Z,8.93
2023-12-15T14:32:46.912Z,8.75
2023-12-15T14:35:16.219Z,9.93
2023-12-15T14:37:45.411Z,8.98
2023-12-15T14:40:15.558Z,9.15
2023-12-15T14:42:44.646Z,9.18
2023-12-15T14:45:13.536Z,8.95
2023-12-15T14:47:43.345Z,9.05
2023-12-15T14:50:12.863Z,8.55
2023-12-15T14:52:42.934Z,9.45
2023-12-15T14:55:12.138Z,8.80
2023-12-15T14:57:42.530Z,9.10
2023-12-15T15:02:42.797Z,8.45
2023-12-15T15:05:12.047Z,9.13
2023-12-15T15:07:42.456Z,8.98
2023-12-15T15:10:11.615Z,10.30
2023-12-15T15:12:41.887Z,10.10
2023-12-15T15:17:40.880Z,10.15
2023-12-15T15:20:11.024Z,10.88
2023-12-15T15:22:40.138Z,10.20
2023-12-15T15:25:09.827Z,11.25
2023-12-15T15:27:39.258Z,13.77
2023-12-15T15:30:10.732Z,15.70
2023-12-15T15:32:41.252Z,11.73
2023-12-15T15:37:41.236Z,9.90
2023-12-15T15:40:12.235Z,10.25
2023-12-15T15:42:42.040Z,10.20
2023-12-15T15:45:12.601Z,10.30
2023-12-15T15:50:11.216Z,9.95
2023-12-15T15:52:39.918Z,10.15
2023-12-15T15:55:09.682Z,9.60
2023-12-15T15:57:38.606Z,8.73
2023-12-15T16:00:09.655Z,8.93
2023-12-15T16:02:42.790Z,8.93
2023-12-15T16:07:40.877Z,8.55
2023-12-15T16:10:10.256Z,9.13
2023-12-15T16:12:39.204Z,8.80
2023-12-15T16:15:09.323Z,8.80
2023-12-15T16:17:38.607Z,9.55
2023-12-15T16:20:11.688Z,9.38
2023-12-15T16:22:41.521Z,8.35
2023-12-15T16:25:10.973Z,9.47
2023-12-15T16:27:40.649Z,9.50
2023-12-15T16:30:10.574Z,9.02
2023-12-15T16:32:39.355Z,10.07
2023-12-15T16:35:10.206Z,9.10
2023-12-15T16:37:39.162Z,8.13
2023-12-15T16:40:09.857Z,9.57
2023-12-15T16:42:46.002Z,9.55
2023-12-15T16:45:16.444Z,10.57
2023-12-15T16:47:46.484Z,10.75
2023-12-15T16:50:17.271Z,11.70
2023-12-15T16:55:14.803Z,13.43
2023-12-15T16:57:44.677Z,13.13
2023-12-15T17:00:15.236Z,10.75
2023-12-15T17:02:44.370Z,10.52
2023-12-15T17:05:13.031Z,10.48
2023-12-15T17:07:43.219Z,9.88
2023-12-15T17:10:12.484Z,10.25
2023-12-15T17:12:41.270Z,10.40
2023-12-15T17:15:10.915Z,10.63
2023-12-15T17:17:42.211Z,11.17
2023-12-15T17:20:13.758Z,13.68
2023-12-15T17:22:43.871Z,10.38
2023-12-15T17:25:13.644Z,9.65
2023-12-15T17:27:43.091Z,10.40
2023-12-15T17:30:12.546Z,11.25
2023-12-15T17:32:41.479Z,10.00
2023-12-15T17:35:11.690Z,11.10
2023-12-15T17:37:40.321Z,10.55
2023-12-15T17:40:11.778Z,10.45
2023-12-15T17:42:40.661Z,10.25
2023-12-15T17:45:10.443Z,9.95
2023-12-15T17:47:39.581Z,10.48
2023-12-15T17:50:10.011Z,10.18
2023-12-15T17:52:38.670Z,9.80
2023-12-15T17:55:07.942Z,10.55
2023-12-15T17:57:38.235Z,10.15
2023-12-15T18:00:10.522Z,14.82
2023-12-15T18:02:39.333Z,11.52
2023-12-15T18:05:08.582Z,9.80
2023-12-15T18:07:37.543Z,9.75
2023-12-15T18:10:07.445Z,9.73
2023-12-15T18:12:37.950Z,10.20
2023-12-15T18:15:08.011Z,10.38
2023-12-15T18:17:37.590Z,9.35
2023-12-15T18:20:07.636Z,9.23
2023-12-15T18:22:36.365Z,10.35
2023-12-15T18:25:05.468Z,10.98
2023-12-15T18:27:37.987Z,9.77
2023-12-15T18:30:09.570Z,11.15
2023-12-15T18:32:39.248Z,12.02
2023-12-15T18:35:09.014Z,10.65
2023-12-15T18:37:38.303Z,10.30
2023-12-15T18:40:09.892Z,10.17
2023-12-15T18:42:40.492Z,10.90
2023-12-15T18:45:10.996Z,9.88
2023-12-15T18:47:40.219Z,9.77
2023-12-15T18:50:09.839Z,9.88
2023-12-15T18:52:38.464Z,9.65
2023-12-15T18:55:07.691Z,9.57
2023-12-15T18:57:46.595Z,9.82
2023-12-15T19:00:22.699Z,9.02
2023-12-15T19:02:52.869Z,10.10
2023-12-15T19:05:22.299Z,9.67
2023-12-15T19:07:53.435Z,9.75
2023-12-15T19:10:24.587Z,9.27
2023-12-15T19:12:53.496Z,9.27
2023-12-15T19:15:25.444Z,9.32
2023-12-15T19:17:55.271Z,10.50
2023-12-15T19:20:24.752Z,10.70
2023-12-15T19:22:53.585Z,10.27
2023-12-15T19:25:22.430Z,9.00
2023-12-15T19:27:51.237Z,9.27
2023-12-15T19:30:21.003Z,9.15
2023-12-15T19:32:51.050Z,9.43
2023-12-15T19:35:20.663Z,10.27
2023-12-15T19:37:49.757Z,10.85
2023-12-15T19:40:20.351Z,10.20
2023-12-15T19:42:49.161Z,10.43
2023-12-15T19:45:18.497Z,11.05
2023-12-15T19:47:47.510Z,11.00
2023-12-15T19:50:17.745Z,9.35
2023-12-15T19:52:46.765Z,9.60
2023-12-15T19:55:15.877Z,10.00
2023-12-15T19:57:45.174Z,14.88
2023-12-15T20:00:15.655Z,11.53
2023-12-15T20:02:44.408Z,10.65
2023-12-15T20:05:16.233Z,11.27
2023-12-15T20:07:46.189Z,10.35
2023-12-15T20:10:15.843Z,10.35
2023-12-15T20:12:44.762Z,10.00
2023-12-15T20:15:18.137Z,9.90
2023-12-15T20:17:46.785Z,10.23
2023-12-15T20:20:38.518Z,10.35
2023-12-15T20:23:08.641Z,9.93
2023-12-15T20:25:37.321Z,9.95
2023-12-15T20:28:10.352Z,10.10
2023-12-15T20:30:39.213Z,9.93
2023-12-15T20:33:08.107Z,9.80
2023-12-15T20:35:37.129Z,11.23
2023-12-15T20:38:06.207Z,10.73
2023-12-15T20:40:38.229Z,9.90
2023-12-15T20:43:07.813Z,10.70
2023-12-15T20:45:36.900Z,10.52
2023-12-15T20:48:05.704Z,10.48
2023-12-15T20:50:34.762Z,11.02
2023-12-15T20:53:03.908Z,11.18
2023-12-15T20:55:32.852Z,11.27
2023-12-15T20:58:02.922Z,12.52
2023-12-15T21:00:31.917Z,12.55
2023-12-15T21:03:01.950Z,11.35
2023-12-15T21:05:31.548Z,11.10
2023-12-15T21:08:00.618Z,10.38
2023-12-15T21:10:29.910Z,10.50
2023-12-15T21:12:59.129Z,9.82
2023-12-15T21:15:29.119Z,10.60
2023-12-15T21:17:57.903Z,9.45
2023-12-15T21:20:27.198Z,9.98
2023-12-15T21:22:55.853Z,10.23
2023-12-15T21:25:24.864Z,10.10
2023-12-15T21:27:53.624Z,11.00
2023-12-15T21:30:23.275Z,9.23
2023-12-15T21:32:53.438Z,10.05
2023-12-15T21:35:22.089Z,10.65
2023-12-15T21:37:51.029Z,9.38
2023-12-15T21:40:20.434Z,10.23
2023-12-15T21:42:49.789Z,10.55
2023-12-15T21:45:18.641Z,10.55
2023-12-15T21:47:47.633Z,10.52
2023-12-15T21:50:17.999Z,10.02
2023-12-15T21:52:46.798Z,10.02
2023-12-15T21:55:15.661Z,9.65
2023-12-15T21:57:44.552Z,10.13
2023-12-15T22:00:14.436Z,11.13
2023-12-15T22:02:43.079Z,11.05
2023-12-15T22:05:11.737Z,12.73
2023-12-15T22:07:41.725Z,11.15
2023-12-15T22:10:12.461Z,12.20
2023-12-15T22:12:41.647Z,12.23
2023-12-15T22:15:10.924Z,11.50
2023-12-15T22:17:39.764Z,12.32
2023-12-15T22:20:13.151Z,11.25
2023-12-15T22:22:43.292Z,10.73
2023-12-15T22:25:12.204Z,10.75
2023-12-15T22:27:41.461Z,11.10
2023-12-15T22:30:13.480Z,12.15
2023-12-15T22:32:42.953Z,11.55
2023-12-15T22:35:11.996Z,11.68
2023-12-15T22:37:42.297Z,11.98
2023-12-15T22:40:11.600Z,12.38
2023-12-15T22:42:40.467Z,11.95
2023-12-15T22:45:09.982Z,12.02
2023-12-15T22:47:39.531Z,11.20
2023-12-15T22:50:10.214Z,11.57
2023-12-15T22:52:39.106Z,13.82
2023-12-15T22:55:10.141Z,14.00
2023-12-15T22:57:39.101Z,12.40
2023-12-15T23:00:09.657Z,12.65
2023-12-15T23:02:38.357Z,13.02
2023-12-15T23:05:08.076Z,12.25
2023-12-15T23:07:37.198Z,13.30
2023-12-15T23:10:09.926Z,12.98
2023-12-15T23:12:38.769Z,13.15
2023-12-15T23:15:15.088Z,13.40
2023-12-15T23:17:50.250Z,12.77
2023-12-15T23:20:18.889Z,14.38
2023-12-15T23:22:47.497Z,11.68
2023-12-15T23:25:18.454Z,13.13
2023-12-15T23:27:47.999Z,13.52
2023-12-15T23:30:17.020Z,12.50
2023-12-15T23:32:45.828Z,12.45
2023-12-15T23:35:14.546Z,12.57
2023-12-15T23:37:45.550Z,12.93
2023-12-15T23:40:14.509Z,12.75
2023-12-15T23:42:44.470Z,13.50
2023-12-15T23:45:13.901Z,12.75
2023-12-15T23:47:43.011Z,12.95
2023-12-15T23:50:12.774Z,14.40
2023-12-15T23:52:41.410Z,13.98
2023-12-15T23:55:10.826Z,14.27
2023-12-15T23:57:41.386Z,13.20
